Time;durP1;ratioP1;P1;durP2;ratioP2;P2;SDS_P1;SDS_P2;PMS_P1;PMS_P2;Temp;Humidity;BMP_temperature;BMP_pressure;BME280_temperature;BME280_humidity;BME280_pressure;Samples;Min_cycle;Max_cycle;Signal;HPM_P1;HPM_P2
2023/01/10 00:01:12;;;;;;;17.55;4.05;;;5.60;99.90;;;;;;5037235;28;20034;-62
2023/01/10 00:03:37;;;;;;;15.48;3.03;;;5.60;99.90;;;;;;5018441;28;20503;-62
2023/01/10 00:06:03;;;;;;;19.25;3.50;;;5.50;99.90;;;;;;5033520;28;20036;-62
2023/01/10 00:08:29;;;;;;;15.23;2.88;;;5.50;99.90;;;;;;5032091;28;20037;-62
2023/01/10 00:10:54;;;;;;;15.63;3.85;;;5.50;99.90;;;;;;5047553;28;20041;-62
2023/01/10 00:13:22;;;;;;;19.77;3.50;;;5.50;99.90;;;;;;5050146;28;20541;-62
2023/01/10 00:15:54;;;;;;;19.05;4.10;;;5.40;99.90;;;;;;5035022;28;20037;-62
2023/01/10 00:18:19;;;;;;;19.90;3.83;;;5.50;99.90;;;;;;5019749;28;20124;-62
2023/01/10 00:20:46;;;;;;;18.80;3.75;;;5.50;99.90;;;;;;5039408;28;20108;-62
2023/01/10 00:23:12;;;;;;;20.05;3.67;;;5.40;99.90;;;;;;5039389;28;20037;-62
2023/01/10 00:25:39;;;;;;;19.67;3.70;;;5.40;99.90;;;;;;5041529;28;20043;-62
2023/01/10 00:28:16;;;;;;;28.15;3.55;;;5.40;99.90;;;;;;5032155;28;20063;-62
2023/01/10 00:30:41;;;;;;;19.42;3.65;;;5.40;99.90;;;;;;5047007;28;20124;-62
2023/01/10 00:33:08;;;;;;;18.35;3.42;;;5.50;99.90;;;;;;5023163;28;20119;-62
2023/01/10 00:35:34;;;;;;;19.67;3.75;;;5.50;99.90;;;;;;5039396;28;20067;-62
2023/01/10 00:38:04;;;;;;;18.55;3.47;;;5.50;99.90;;;;;;5038794;28;20037;-62
2023/01/10 00:40:31;;;;;;;25.48;3.80;;;5.60;99.90;;;;;;5048562;28;20045;-62
2023/01/10 00:45:44;;;;;;;20.38;3.42;;;5.70;99.90;;;;;;5035714;28;20041;-63
2023/01/10 00:48:10;;;;;;;20.02;4.10;;;5.70;99.90;;;;;;5049164;28;20041;-62
2023/01/10 00:50:36;;;;;;;21.83;3.80;;;5.80;99.90;;;;;;5042716;28;20037;-63
2023/01/10 00:53:02;;;;;;;20.85;4.03;;;5.80;99.90;;;;;;5034818;28;20048;-62
2023/01/10 00:55:28;;;;;;;18.92;3.65;;;5.90;99.90;;;;;;5047354;28;20124;-62
2023/01/10 00:57:53;;;;;;;15.52;3.42;;;5.90;99.90;;;;;;5030121;28;20123;-62
2023/01/10 01:00:19;;;;;;;20.20;3.58;;;5.90;99.90;;;;;;5045123;28;20029;-62
2023/01/10 01:02:45;;;;;;;22.50;3.05;;;6.00;99.90;;;;;;5043570;28;20090;-62
2023/01/10 01:05:10;;;;;;;20.60;3.92;;;6.00;99.90;;;;;;5039864;28;20037;-62
2023/01/10 01:07:36;;;;;;;16.27;3.13;;;6.00;99.90;;;;;;5017561;28;20098;-63
2023/01/10 01:12:46;;;;;;;11.32;2.92;;;6.10;99.90;;;;;;5048958;28;20033;-62
2023/01/10 01:15:12;;;;;;;18.38;3.15;;;6.10;99.90;;;;;;5024464;28;20049;-62
2023/01/10 01:17:38;;;;;;;17.73;3.35;;;6.10;99.90;;;;;;5046117;28;20040;-63
2023/01/10 01:20:04;;;;;;;21.05;3.35;;;6.10;99.90;;;;;;5023153;28;20033;-62
2023/01/10 01:22:30;;;;;;;13.40;2.58;;;6.10;99.90;;;;;;5048990;28;20124;-62
2023/01/10 01:24:55;;;;;;;20.67;4.20;;;6.10;99.90;;;;;;5049100;28;20140;-63
2023/01/10 01:27:22;;;;;;;18.95;3.35;;;6.10;99.90;;;;;;5034913;28;20065;-63
2023/01/10 01:29:48;;;;;;;15.55;3.05;;;6.10;99.90;;;;;;5021188;28;20091;-63
2023/01/10 01:32:13;;;;;;;16.88;3.47;;;6.00;99.90;;;;;;5036185;28;20065;-62
2023/01/10 01:34:39;;;;;;;20.75;3.30;;;6.00;99.90;;;;;;5048996;28;20091;-63
2023/01/10 01:37:05;;;;;;;22.27;3.50;;;6.00;99.90;;;;;;5048336;28;20107;-63
2023/01/10 01:39:31;;;;;;;18.70;3.20;;;6.00;99.90;;;;;;5049718;28;20032;-63
2023/01/10 01:41:56;;;;;;;15.93;3.10;;;6.00;99.90;;;;;;5026204;28;20091;-62
2023/01/10 01:44:24;;;;;;;17.02;3.30;;;5.90;99.90;;;;;;5049046;28;20041;-63
2023/01/10 01:47:03;;;;;;;15.85;3.03;;;5.90;99.90;;;;;;5043894;28;20033;-63
2023/01/10 01:49:30;;;;;;;14.05;3.00;;;5.90;99.90;;;;;;5052893;28;20045;-62
2023/01/10 01:52:03;;;;;;;16.60;3.38;;;5.90;99.90;;;;;;5046165;28;20041;-63
2023/01/10 01:54:31;;;;;;;15.40;3.22;;;5.90;99.90;;;;;;5047779;28;20048;-63
2023/01/10 01:57:10;;;;;;;19.15;3.00;;;5.80;99.90;;;;;;5016043;28;20041;-62
2023/01/10 01:59:40;;;;;;;16.88;2.92;;;5.80;99.90;;;;;;5038098;28;20083;-62
2023/01/10 02:02:50;;;;;;;18.80;3.35;;;5.80;99.90;;;;;;5037217;28;20041;-63
2023/01/10 02:05:21;;;;;;;11.80;2.78;;;5.80;99.90;;;;;;5009752;28;20133;-63
2023/01/10 02:07:51;;;;;;;17.98;3.35;;;5.90;99.90;;;;;;5040338;28;20040;-62
2023/01/10 02:10:18;;;;;;;15.18;3.58;;;5.90;99.90;;;;;;5022269;28;20076;-63
2023/01/10 02:12:45;;;;;;;17.73;3.28;;;5.90;99.90;;;;;;5044365;28;20060;-63
2023/01/10 02:15:13;;;;;;;18.17;3.53;;;5.90;99.90;;;;;;5049247;28;20045;-63
2023/01/10 02:17:39;;;;;;;17.88;3.22;;;5.90;99.90;;;;;;5034146;28;20095;-63
2023/01/10 02:20:11;;;;;;;16.85;3.13;;;5.90;99.90;;;;;;5041702;28;20451;-63
2023/01/10 02:23:14;;;;;;;21.13;4.15;;;5.90;99.90;;;;;;5049993;28;20033;-62
2023/01/10 02:25:58;;;;;;;15.05;2.92;;;5.80;99.90;;;;;;5046995;28;20067;-62
2023/01/10 02:28:41;;;;;;;16.92;3.45;;;5.80;99.90;;;;;;5037027;28;20044;-62
2023/01/10 02:31:28;;;;;;;16.02;3.13;;;5.80;99.90;;;;;;5037967;28;20483;-62
2023/01/10 02:33:54;;;;;;;21.77;3.13;;;5.80;99.90;;;;;;5041874;28;20400;-62
2023/01/10 02:36:23;;;;;;;16.63;3.10;;;5.80;99.90;;;;;;5042741;28;20025;-63
2023/01/10 02:38:53;;;;;;;16.00;3.00;;;5.80;99.90;;;;;;5049975;28;20416;-62
2023/01/10 02:41:58;;;;;;;17.20;3.17;;;5.90;99.90;;;;;;5049660;28;20037;-62
2023/01/10 02:44:30;;;;;;;13.20;3.22;;;6.00;99.90;;;;;;5046319;28;20571;-63
2023/01/10 02:46:56;;;;;;;13.48;3.30;;;6.00;99.90;;;;;;5041538;28;20067;-62
2023/01/10 02:49:21;;;;;;;15.60;3.60;;;6.00;99.90;;;;;;5050602;28;20562;-62
2023/01/10 02:51:47;;;;;;;16.63;3.00;;;6.10;99.90;;;;;;5050676;28;20029;-62
2023/01/10 02:54:20;;;;;;;20.50;3.00;;;6.10;99.90;;;;;;5051704;28;20106;-63
2023/01/10 02:57:15;;;;;;;19.35;3.45;;;6.10;99.90;;;;;;5033375;28;20115;-62
2023/01/10 02:59:56;;;;;;;13.77;3.28;;;6.10;99.90;;;;;;5030408;28;20045;-62
2023/01/10 03:02:44;;;;;;;16.92;3.28;;;6.10;99.90;;;;;;5045605;28;20037;-63
2023/01/10 03:05:38;;;;;;;15.23;2.45;;;6.10;99.90;;;;;;5030266;28;20041;-62
2023/01/10 03:08:34;;;;;;;20.65;3.20;;;6.10;99.90;;;;;;5042808;28;20044;-62
2023/01/10 03:11:06;;;;;;;14.55;2.83;;;6.10;99.90;;;;;;5020677;28;20377;-63
2023/01/10 03:13:53;;;;;;;15.20;2.92;;;6.10;99.90;;;;;;5046700;28;20029;-62
2023/01/10 03:16:25;;;;;;;9.23;2.70;;;6.10;99.90;;;;;;5032793;28;20137;-63
2023/01/10 03:18:53;;;;;;;;;;;6.10;99.90;;;;;;5033882;28;20416;-63
2023/01/10 03:21:22;;;;;;;19.40;3.58;;;6.10;99.90;;;;;;5051764;28;20383;-63
2023/01/10 03:23:49;;;;;;;20.17;3.33;;;6.20;99.90;;;;;;5030788;28;20037;-63
2023/01/10 03:26:20;;;;;;;14.18;3.03;;;6.10;99.90;;;;;;5046180;28;20047;-63
2023/01/10 03:28:51;;;;;;;16.85;3.15;;;6.10;99.90;;;;;;5034991;28;20101;-63
2023/01/10 03:31:30;;;;;;;17.38;3.90;;;6.10;99.90;;;;;;5021155;28;20502;-63
2023/01/10 03:33:56;;;;;;;14.35;3.42;;;6.10;99.90;;;;;;5038701;28;20119;-63
2023/01/10 03:36:58;;;;;;;16.85;3.40;;;6.10;99.90;;;;;;5051215;28;20029;-63
2023/01/10 03:39:29;;;;;;;19.60;3.38;;;6.10;99.90;;;;;;5014507;28;20497;-63
2023/01/10 03:42:12;;;;;;;23.45;3.42;;;6.10;99.90;;;;;;5050036;28;20047;-63
2023/01/10 03:44:49;;;;;;;20.90;3.05;;;6.10;99.90;;;;;;5050487;28;20326;-63
2023/01/10 03:47:44;;;;;;;14.95;2.92;;;6.10;99.90;;;;;;5038568;28;20033;-63
2023/01/10 03:50:17;;;;;;;16.75;3.25;;;6.10;99.90;;;;;;5021824;28;20037;-63
2023/01/10 03:52:43;;;;;;;20.45;3.63;;;6.10;99.90;;;;;;5037207;28;20037;-62
2023/01/10 03:55:16;;;;;;;19.73;4.00;;;6.10;99.90;;;;;;5049098;28;20495;-63
2023/01/10 03:57:44;;;;;;;13.27;3.33;;;6.10;99.90;;;;;;5047955;28;20399;-63
2023/01/10 04:00:12;;;;;;;17.55;3.30;;;6.10;99.90;;;;;;5040688;28;20040;-63
2023/01/10 04:02:37;;;;;;;25.25;3.90;;;6.10;99.90;;;;;;5016916;28;20123;-63
2023/01/10 04:05:03;;;;;;;18.10;3.55;;;6.10;99.90;;;;;;5029298;28;20507;-63
2023/01/10 04:07:29;;;;;;;18.77;3.08;;;6.10;99.90;;;;;;5040869;28;20033;-63
2023/01/10 04:09:54;;;;;;;24.10;3.65;;;6.10;99.90;;;;;;5041593;28;20033;-63
2023/01/10 04:12:20;;;;;;;16.80;3.17;;;6.20;99.90;;;;;;5034036;28;20250;-62
2023/01/10 04:14:46;;;;;;;15.32;2.92;;;6.20;99.90;;;;;;5032016;28;20033;-63
2023/01/10 04:17:13;;;;;;;18.63;3.17;;;6.20;99.90;;;;;;5032354;28;20053;-63
2023/01/10 04:19:38;;;;;;;16.98;3.50;;;6.20;99.90;;;;;;5041661;28;20037;-62
2023/01/10 04:22:07;;;;;;;22.92;3.17;;;6.20;99.90;;;;;;5047782;28;20583;-62
2023/01/10 04:24:33;;;;;;;15.25;3.22;;;6.30;99.90;;;;;;5046717;28;20079;-63
2023/01/10 04:26:59;;;;;;;24.30;4.70;;;6.30;99.90;;;;;;5016450;28;20400;-62
2023/01/10 04:29:24;;;;;;;21.67;3.72;;;6.30;99.90;;;;;;5021553;28;20164;-62
2023/01/10 04:31:50;;;;;;;19.58;3.50;;;6.30;99.90;;;;;;5041546;28;20124;-63
2023/01/10 04:34:16;;;;;;;15.93;3.17;;;6.30;99.90;;;;;;5036747;28;20028;-62
2023/01/10 04:36:41;;;;;;;14.52;2.85;;;6.20;99.90;;;;;;5041879;28;20033;-64
2023/01/10 04:39:07;;;;;;;17.63;3.13;;;6.20;99.90;;;;;;5046713;28;20558;-62
2023/01/10 04:41:33;;;;;;;18.40;3.50;;;6.20;99.90;;;;;;5032191;28;20142;-63
2023/01/10 04:43:59;;;;;;;18.63;2.92;;;6.20;99.90;;;;;;5038302;28;20431;-62
2023/01/10 04:46:25;;;;;;;18.83;3.45;;;6.20;99.90;;;;;;5028565;28;20040;-62
2023/01/10 04:48:51;;;;;;;15.95;3.55;;;6.20;99.90;;;;;;5041285;28;20492;-63
2023/01/10 04:51:16;;;;;;;17.30;3.10;;;6.10;99.90;;;;;;5037166;28;20029;-64
2023/01/10 04:53:42;;;;;;;24.42;3.63;;;6.10;99.90;;;;;;5030549;28;20025;-63
2023/01/10 04:56:17;;;;;;;12.73;3.03;;;6.10;99.90;;;;;;5041750;28;20622;-62
2023/01/10 04:58:43;;;;;;;17.52;3.17;;;6.10;99.90;;;;;;5040097;28;20526;-64
2023/01/10 05:01:11;;;;;;;17.00;3.25;;;6.20;99.90;;;;;;5043101;28;20033;-64
2023/01/10 05:03:37;;;;;;;19.05;3.40;;;6.20;99.90;;;;;;5031884;28;20075;-63
2023/01/10 05:06:04;;;;;;;20.52;3.72;;;6.20;99.90;;;;;;5031020;28;20135;-63
2023/01/10 05:08:30;;;;;;;19.40;3.50;;;6.20;99.90;;;;;;5041529;28;20044;-63
2023/01/10 05:10:55;;;;;;;20.63;4.07;;;6.20;99.90;;;;;;5032402;28;20033;-62
2023/01/10 05:13:21;;;;;;;19.48;3.42;;;6.20;99.90;;;;;;5038230;28;20526;-63
2023/01/10 05:15:47;;;;;;;19.42;3.50;;;6.20;99.90;;;;;;5047165;28;20443;-64
2023/01/10 05:18:12;;;;;;;16.27;3.05;;;6.20;99.90;;;;;;5050203;28;20041;-63
2023/01/10 05:20:38;;;;;;;20.80;4.28;;;6.30;99.90;;;;;;5043120;28;20033;-63
2023/01/10 05:23:03;;;;;;;24.40;3.47;;;6.30;99.90;;;;;;5049103;28;21108;-63
2023/01/10 05:25:29;;;;;;;19.20;3.40;;;6.30;99.90;;;;;;5046978;28;20041;-64
2023/01/10 05:27:55;;;;;;;16.13;3.22;;;6.30;99.90;;;;;;5037112;28;20506;-64
2023/01/10 05:30:20;;;;;;;20.90;3.72;;;6.20;99.90;;;;;;5034488;28;20115;-63
2023/01/10 05:32:46;;;;;;;19.63;3.97;;;6.20;99.90;;;;;;5044030;28;20037;-63
2023/01/10 05:35:11;;;;;;;21.33;4.00;;;6.20;99.90;;;;;;5045096;28;20112;-63
2023/01/10 05:37:37;;;;;;;22.90;4.20;;;6.20;99.90;;;;;;5036671;28;20425;-64
2023/01/10 05:40:04;;;;;;;24.65;3.40;;;6.20;99.90;;;;;;5037036;28;20369;-64
2023/01/10 05:42:30;;;;;;;18.67;3.30;;;6.20;99.90;;;;;;5038549;28;20065;-64
2023/01/10 05:44:55;;;;;;;23.30;4.60;;;6.20;99.90;;;;;;5019720;28;20084;-64
2023/01/10 05:47:21;;;;;;;19.58;3.72;;;6.20;99.90;;;;;;5040937;28;20327;-65
2023/01/10 05:49:46;;;;;;;18.70;3.33;;;6.20;99.90;;;;;;5038994;28;20170;-64
2023/01/10 05:52:13;;;;;;;25.67;3.90;;;6.20;99.90;;;;;;5041367;28;20041;-64
2023/01/10 05:54:39;;;;;;;18.25;3.10;;;6.10;99.90;;;;;;5022422;28;20045;-64
2023/01/10 05:57:05;;;;;;;22.30;4.00;;;6.10;99.90;;;;;;5045478;28;20036;-64
2023/01/10 05:59:31;;;;;;;15.07;3.90;;;6.00;99.90;;;;;;5046255;28;20043;-63
2023/01/10 06:01:56;;;;;;;13.77;3.22;;;6.10;99.90;;;;;;5035427;28;20476;-63
2023/01/10 06:04:22;;;;;;;21.30;3.78;;;6.00;99.90;;;;;;5042952;28;20040;-62
2023/01/10 06:06:47;;;;;;;20.30;3.78;;;6.00;99.90;;;;;;5018513;28;20033;-64
2023/01/10 06:09:13;;;;;;;17.88;3.55;;;6.00;99.90;;;;;;5036496;28;20029;-63
2023/01/10 06:11:39;;;;;;;13.70;3.03;;;5.90;99.90;;;;;;5037057;28;20083;-63
2023/01/10 06:14:06;;;;;;;18.52;4.07;;;5.90;99.90;;;;;;5039415;28;20044;-63
2023/01/10 06:16:32;;;;;;;21.88;3.90;;;5.90;99.90;;;;;;5044787;28;20545;-64
2023/01/10 06:18:57;;;;;;;18.15;3.92;;;5.80;99.90;;;;;;5042342;28;20033;-64
2023/01/10 06:21:23;;;;;;;18.45;3.30;;;5.80;99.90;;;;;;5037594;28;20584;-63
2023/01/10 06:23:49;;;;;;;26.15;3.47;;;5.80;99.90;;;;;;5045740;28;20028;-63
2023/01/10 06:26:14;;;;;;;16.05;3.22;;;5.80;99.90;;;;;;5050060;28;20091;-63
2023/01/10 06:28:40;;;;;;;26.23;3.75;;;5.70;99.90;;;;;;5034835;28;20536;-64
2023/01/10 06:31:07;;;;;;;21.98;3.92;;;5.70;99.90;;;;;;5043786;28;20519;-63
2023/01/10 06:33:33;;;;;;;21.45;3.58;;;5.70;99.90;;;;;;5043401;28;20067;-64
2023/01/10 06:35:58;;;;;;;18.27;4.10;;;5.70;99.90;;;;;;5044022;28;20052;-64
2023/01/10 06:38:24;;;;;;;14.43;3.47;;;5.60;99.90;;;;;;5043424;28;20045;-64
2023/01/10 06:40:50;;;;;;;20.33;4.18;;;5.60;99.90;;;;;;5024107;28;20041;-63
2023/01/10 06:43:15;;;;;;;19.63;3.90;;;5.60;99.90;;;;;;5031073;28;20094;-63
2023/01/10 06:45:41;;;;;;;13.93;3.45;;;5.60;99.90;;;;;;5045035;28;20033;-63
2023/01/10 06:48:06;;;;;;;16.38;2.97;;;5.50;99.90;;;;;;5051914;28;20059;-64
2023/01/10 06:50:32;;;;;;;23.20;4.47;;;5.50;99.90;;;;;;5028855;28;20029;-64
2023/01/10 06:52:59;;;;;;;24.45;4.30;;;5.50;99.90;;;;;;5041218;28;20508;-63
2023/01/10 06:55:26;;;;;;;20.77;4.35;;;5.50;99.90;;;;;;5051346;28;20041;-64
2023/01/10 06:58:00;;;;;;;21.00;3.75;;;5.50;99.90;;;;;;5022923;28;20041;-62
2023/01/10 07:00:26;;;;;;;26.52;4.05;;;5.50;99.90;;;;;;5051103;28;20037;-64
2023/01/10 07:02:55;;;;;;;20.95;3.88;;;5.50;99.90;;;;;;5025369;28;20132;-63
2023/01/10 07:05:21;;;;;;;19.38;4.13;;;5.50;99.90;;;;;;5041302;28;20059;-64
2023/01/10 07:07:46;;;;;;;19.58;3.75;;;5.50;99.90;;;;;;5048775;28;20039;-64
2023/01/10 07:10:13;;;;;;;19.95;4.07;;;5.50;99.90;;;;;;5033516;28;20391;-62
2023/01/10 07:12:38;;;;;;;22.65;4.57;;;5.60;99.90;;;;;;5042944;28;20029;-63
2023/01/10 07:15:05;;;;;;;22.67;4.25;;;5.50;99.90;;;;;;5030388;28;20392;-63
2023/01/10 07:17:30;;;;;;;18.00;4.43;;;5.50;99.90;;;;;;5045973;28;20036;-63
2023/01/10 07:19:56;;;;;;;15.93;3.65;;;5.50;99.90;;;;;;5050104;28;20507;-64
2023/01/10 07:22:22;;;;;;;19.15;4.15;;;5.50;99.90;;;;;;5046575;28;20036;-63
2023/01/10 07:24:47;;;;;;;25.35;4.28;;;5.50;99.90;;;;;;5024575;28;20041;-63
2023/01/10 07:27:13;;;;;;;23.90;4.40;;;5.50;99.90;;;;;;5051034;28;20025;-64
2023/01/10 07:29:38;;;;;;;23.92;4.03;;;5.50;99.90;;;;;;5031902;28;20040;-63
2023/01/10 07:32:05;;;;;;;26.20;5.00;;;5.60;99.90;;;;;;5046914;28;20045;-64
2023/01/10 07:34:31;;;;;;;25.35;4.50;;;5.60;99.90;;;;;;5035960;28;20484;-62
2023/01/10 07:36:56;;;;;;;18.83;5.03;;;5.60;99.90;;;;;;5043889;28;20060;-63
2023/01/10 07:39:22;;;;;;;26.08;4.82;;;5.60;99.90;;;;;;5047175;28;20044;-63
2023/01/10 07:41:49;;;;;;;20.75;4.22;;;5.60;99.90;;;;;;5032673;28;20542;-63
2023/01/10 07:44:15;;;;;;;22.55;4.15;;;5.60;99.90;;;;;;5047430;28;20045;-64
2023/01/10 07:46:40;;;;;;;23.00;4.40;;;5.60;99.90;;;;;;5044100;28;20373;-61
2023/01/10 07:49:06;;;;;;;22.45;4.65;;;5.60;99.90;;;;;;5031221;28;20083;-62
2023/01/10 07:51:32;;;;;;;22.55;4.40;;;5.60;99.90;;;;;;5030930;28;20032;-62
2023/01/10 07:53:58;;;;;;;24.27;4.53;;;5.60;99.90;;;;;;5045134;28;20080;-61
2023/01/10 07:56:24;;;;;;;25.65;5.43;;;5.60;99.90;;;;;;5050967;28;20080;-62
2023/01/10 07:58:50;;;;;;;25.20;4.75;;;5.60;99.90;;;;;;5050358;28;20032;-62
2023/01/10 08:01:15;;;;;;;18.80;4.68;;;5.60;99.90;;;;;;5045205;28;20076;-62
2023/01/10 08:03:41;;;;;;;22.38;4.85;;;5.50;99.90;;;;;;5028511;28;20545;-62
2023/01/10 08:06:11;;;;;;;19.38;4.32;;;5.50;99.90;;;;;;5039855;28;20075;-61
2023/01/10 08:08:37;;;;;;;24.48;4.10;;;5.50;99.90;;;;;;5027249;28;20044;-62
2023/01/10 08:11:04;;;;;;;23.67;4.35;;;5.50;99.90;;;;;;5036364;28;20038;-62
2023/01/10 08:13:31;;;;;;;29.42;6.05;;;5.50;99.90;;;;;;5049992;28;20033;-62
2023/01/10 08:15:57;;;;;;;20.80;4.60;;;5.50;99.90;;;;;;5043349;28;20056;-62
2023/01/10 08:18:24;;;;;;;28.77;5.20;;;5.40;99.90;;;;;;5047843;28;20064;-62
2023/01/10 08:20:51;;;;;;;20.33;5.30;;;5.50;99.90;;;;;;5030020;28;20041;-62
2023/01/10 08:23:17;;;;;;;24.73;5.10;;;5.50;99.90;;;;;;5025577;28;20046;-63
2023/01/10 08:25:44;;;;;;;24.67;4.60;;;5.50;99.90;;;;;;5026675;28;20044;-62
2023/01/10 08:28:09;;;;;;;22.85;4.50;;;5.50;99.90;;;;;;5048894;28;20514;-61
2023/01/10 08:30:36;;;;;;;27.75;5.38;;;5.60;99.90;;;;;;5047956;28;20068;-62
2023/01/10 08:33:03;;;;;;;24.42;4.82;;;5.60;99.90;;;;;;5046725;28;20045;-62
2023/01/10 08:35:29;;;;;;;29.33;5.22;;;5.60;99.90;;;;;;5047203;28;20115;-62
2023/01/10 08:37:59;;;;;;;23.50;4.95;;;5.70;99.90;;;;;;5029332;28;20041;-62
2023/01/10 08:40:25;;;;;;;22.15;4.68;;;5.70;99.90;;;;;;5045725;28;20122;-63
2023/01/10 08:42:58;;;;;;;24.92;5.55;;;5.80;99.90;;;;;;5049326;28;20045;-62
2023/01/10 08:45:24;;;;;;;23.02;4.53;;;5.80;99.90;;;;;;5028223;28;20396;-61
2023/01/10 08:47:49;;;;;;;24.48;4.85;;;5.90;99.90;;;;;;5047225;28;20052;-62
2023/01/10 08:50:15;;;;;;;22.25;5.05;;;5.90;99.90;;;;;;5028366;28;20040;-62
2023/01/10 08:52:41;;;;;;;24.20;4.85;;;5.90;99.90;;;;;;5031891;28;20159;-63
2023/01/10 08:55:07;;;;;;;29.83;5.20;;;6.00;99.90;;;;;;5048922;28;20048;-62
2023/01/10 08:57:32;;;;;;;25.98;5.25;;;6.00;99.90;;;;;;5048702;28;20564;-63
2023/01/10 08:59:58;;;;;;;25.70;5.22;;;6.10;99.90;;;;;;5046018;28;20135;-62
2023/01/10 09:02:23;;;;;;;26.80;5.07;;;6.10;99.90;;;;;;5020216;28;20039;-63
2023/01/10 09:04:49;;;;;;;28.75;4.53;;;6.20;99.90;;;;;;5049669;28;20045;-65
2023/01/10 09:07:14;;;;;;;33.58;5.25;;;6.20;99.90;;;;;;5048365;28;20037;-61
2023/01/10 09:09:40;;;;;;;26.30;4.90;;;6.20;99.90;;;;;;5046197;28;20031;-63
2023/01/10 09:12:53;;;;;;;31.92;5.22;;;6.20;99.90;;;;;;5045692;28;20079;-63
2023/01/10 09:14:51;;;;;;;22.27;4.60;;;6.30;99.90;;;;;;5046115;28;20045;-65
2023/01/10 09:17:17;;;;;;;21.52;4.50;;;6.30;99.90;;;;;;5029051;28;20060;-64
2023/01/10 09:19:43;;;;;;;24.05;4.80;;;6.30;99.90;;;;;;5026880;28;20119;-62
2023/01/10 09:22:08;;;;;;;25.55;5.45;;;6.40;99.90;;;;;;5047898;28;20123;-63
2023/01/10 09:24:36;;;;;;;26.45;5.07;;;6.40;99.90;;;;;;5030750;28;20140;-63
2023/01/10 09:27:02;;;;;;;28.75;5.20;;;6.40;99.90;;;;;;5046278;28;20221;-62
2023/01/10 09:29:27;;;;;;;25.02;5.30;;;6.50;99.90;;;;;;5048691;28;20271;-62
2023/01/10 09:31:53;;;;;;;23.70;4.85;;;6.50;99.90;;;;;;5044409;28;20498;-61
2023/01/10 09:34:19;;;;;;;23.77;5.28;;;6.50;99.90;;;;;;5025903;28;20037;-62
2023/01/10 09:36:44;;;;;;;31.80;5.38;;;6.50;99.90;;;;;;5028424;28;20399;-65
2023/01/10 09:39:10;;;;;;;29.35;5.30;;;6.60;99.90;;;;;;5042506;28;20071;-65
2023/01/10 09:42:03;;;;;;;31.90;6.78;;;6.60;99.90;;;;;;5041721;28;20512;-62
2023/01/10 09:44:53;;;;;;;24.30;5.15;;;6.60;99.90;;;;;;5043014;28;20686;-63
2023/01/10 09:47:40;;;;;;;29.27;6.60;;;6.70;99.90;;;;;;5040881;28;20075;-62
2023/01/10 09:50:16;;;;;;;25.02;6.57;;;6.70;99.90;;;;;;5024372;28;20487;-62
2023/01/10 09:53:09;;;;;;;28.08;6.90;;;6.70;99.90;;;;;;5027882;28;20095;-62
2023/01/10 09:55:37;;;;;;;29.10;7.40;;;6.70;99.90;;;;;;5023417;28;20063;-62
2023/01/10 09:58:15;;;;;;;28.75;7.50;;;6.70;99.90;;;;;;5025613;28;20380;-62
2023/01/10 10:00:55;;;;;;;33.67;7.72;;;6.80;99.90;;;;;;5048954;28;20064;-64
2023/01/10 10:03:39;;;;;;;37.17;8.50;;;6.80;99.90;;;;;;5048395;28;20075;-63
2023/01/10 10:06:08;;;;;;;31.38;7.78;;;6.80;99.90;;;;;;5022713;28;20132;-62
2023/01/10 10:08:35;;;;;;;24.48;8.27;;;6.80;99.90;;;;;;5051400;28;20469;-62
2023/01/10 10:11:16;;;;;;;28.20;7.90;;;6.80;99.90;;;;;;5039764;28;20233;-62
2023/01/10 10:13:50;;;;;;;33.35;9.18;;;6.80;99.90;;;;;;5046824;28;20036;-63
2023/01/10 10:16:37;;;;;;;28.88;8.85;;;6.80;99.90;;;;;;5053167;28;20036;-63
2023/01/10 10:19:32;;;;;;;33.05;9.48;;;6.80;99.90;;;;;;5052169;28;20044;-63
2023/01/10 10:22:04;;;;;;;28.77;8.35;;;6.80;99.90;;;;;;5053037;28;20048;-62
2023/01/10 10:25:01;;;;;;;33.37;9.33;;;6.80;99.90;;;;;;5047517;28;20041;-63
2023/01/10 10:27:52;;;;;;;34.05;9.13;;;6.80;99.90;;;;;;5050405;28;20116;-62
2023/01/10 10:30:36;;;;;;;29.65;8.80;;;6.80;99.90;;;;;;5021579;28;20091;-64
2023/01/10 10:33:35;;;;;;;28.42;9.60;;;6.90;99.90;;;;;;5025742;28;20060;-62
2023/01/10 10:36:10;;;;;;;29.55;9.38;;;6.80;99.90;;;;;;5037783;28;20055;-62
2023/01/10 10:38:41;;;;;;;36.25;8.70;;;6.90;99.90;;;;;;5046503;28;20044;-62
2023/01/10 10:41:24;;;;;;;27.58;8.35;;;6.90;99.90;;;;;;5052465;28;20033;-63
2023/01/10 10:43:53;;;;;;;25.70;8.63;;;6.80;99.90;;;;;;5042541;28;20068;-63
2023/01/10 10:46:20;;;;;;;29.70;7.90;;;6.80;99.90;;;;;;5046979;28;20045;-63
2023/01/10 10:49:12;;;;;;;34.35;9.43;;;6.80;99.90;;;;;;5048652;28;20460;-64
2023/01/10 10:51:52;;;;;;;26.65;7.45;;;6.80;99.90;;;;;;5046580;28;20037;-62
2023/01/10 10:54:18;;;;;;;31.52;7.15;;;6.90;99.90;;;;;;5041295;28;20033;-62
2023/01/10 10:56:44;;;;;;;29.52;7.60;;;6.90;99.90;;;;;;5042909;28;20033;-62
2023/01/10 10:59:16;;;;;;;34.35;7.75;;;6.90;99.90;;;;;;5041589;28;20076;-62
2023/01/10 11:01:45;;;;;;;24.90;6.70;;;6.90;99.90;;;;;;5052122;28;20069;-63
2023/01/10 11:04:14;;;;;;;27.33;7.00;;;6.90;99.90;;;;;;5048163;28;20279;-63
2023/01/10 11:06:47;;;;;;;29.23;7.65;;;6.90;99.90;;;;;;5028334;28;20049;-63
2023/01/10 11:11:58;;;;;;;26.23;6.38;;;6.90;99.90;;;;;;5032562;28;20114;-63
2023/01/10 11:14:45;;;;;;;26.00;5.95;;;6.90;99.90;;;;;;5033193;28;20487;-64
2023/01/10 11:17:24;;;;;;;26.17;6.35;;;6.90;99.90;;;;;;5025655;28;20123;-64
2023/01/10 11:19:58;;;;;;;30.00;6.90;;;6.90;99.90;;;;;;5050875;28;20045;-63
2023/01/10 11:22:24;;;;;;;18.02;5.60;;;6.90;99.90;;;;;;5026435;28;20041;-63
2023/01/10 11:24:59;;;;;;;24.42;6.55;;;6.90;99.90;;;;;;5048922;28;20056;-63
2023/01/10 11:27:28;;;;;;;24.98;5.88;;;6.90;99.90;;;;;;5038453;28;20029;-62
2023/01/10 11:30:08;;;;;;;23.15;6.07;;;6.90;99.90;;;;;;5031943;28;20114;-63
2023/01/10 11:32:47;;;;;;;24.77;6.10;;;6.90;99.90;;;;;;5047702;28;20048;-64
2023/01/10 11:35:32;;;;;;;23.33;6.28;;;6.90;99.90;;;;;;5041658;28;20040;-62
2023/01/10 11:38:18;;;;;;;25.10;6.13;;;6.90;99.90;;;;;;5047502;28;20047;-64
2023/01/10 11:41:24;;;;;;;30.60;5.93;;;6.90;99.90;;;;;;5043858;28;20036;-63
2023/01/10 11:43:49;;;;;;;24.70;5.32;;;6.90;99.90;;;;;;5031362;28;20060;-62
2023/01/10 11:46:20;;;;;;;27.05;5.93;;;6.90;99.90;;;;;;5052209;28;20033;-62
2023/01/10 11:49:05;;;;;;;27.67;5.75;;;6.90;99.90;;;;;;5047705;28;20112;-63
2023/01/10 11:51:38;;;;;;;27.55;5.55;;;6.90;99.90;;;;;;5045979;28;20132;-62
2023/01/10 11:54:14;;;;;;;28.30;5.38;;;6.90;99.90;;;;;;5023922;28;20450;-62
2023/01/10 11:56:42;;;;;;;27.63;5.93;;;6.90;99.90;;;;;;5031180;28;20041;-62
2023/01/10 11:59:11;;;;;;;28.88;5.47;;;6.80;99.90;;;;;;5049580;28;20044;-61
2023/01/10 12:01:41;;;;;;;26.67;6.40;;;6.90;99.90;;;;;;5027180;28;20037;-62
2023/01/10 12:04:14;;;;;;;22.52;4.85;;;6.90;99.90;;;;;;5044220;28;20123;-62
2023/01/10 12:06:44;;;;;;;26.50;5.50;;;6.90;99.90;;;;;;5042503;28;20538;-62
2023/01/10 12:09:41;;;;;;;23.30;5.32;;;6.90;99.90;;;;;;5038211;28;20044;-62
2023/01/10 12:12:22;;;;;;;29.60;5.72;;;6.80;99.90;;;;;;5043580;28;20041;-64
2023/01/10 12:14:49;;;;;;;29.73;5.30;;;6.80;99.90;;;;;;5030573;28;20485;-62
2023/01/10 12:17:35;;;;;;;29.80;5.28;;;6.90;99.90;;;;;;5049477;28;20033;-64
2023/01/10 12:20:05;;;;;;;25.85;5.20;;;6.80;99.90;;;;;;5049593;28;20071;-62
2023/01/10 12:22:40;;;;;;;24.58;5.72;;;6.80;99.90;;;;;;5027539;28;20331;-61
2023/01/10 12:25:17;;;;;;;26.50;6.18;;;6.80;99.90;;;;;;5028496;28;20041;-62
2023/01/10 12:27:45;;;;;;;27.15;5.25;;;6.80;99.90;;;;;;5018637;28;20033;-63
2023/01/10 12:30:31;;;;;;;23.08;6.63;;;6.80;99.90;;;;;;5043220;28;20051;-63
2023/01/10 12:33:00;;;;;;;26.60;6.13;;;6.80;99.90;;;;;;5043526;28;20496;-63
2023/01/10 12:35:47;;;;;;;26.63;5.88;;;6.80;99.90;;;;;;5042377;28;20037;-62
2023/01/10 12:38:17;;;;;;;26.52;6.32;;;6.80;99.90;;;;;;5043673;28;20047;-61
2023/01/10 12:40:52;;;;;;;20.88;5.90;;;6.80;99.90;;;;;;5003248;28;20044;-62
2023/01/10 12:46:52;;;;;;;31.40;6.20;;;6.80;99.90;;;;;;5040601;28;20063;-62
2023/01/10 12:49:25;;;;;;;20.33;5.20;;;6.80;99.90;;;;;;5039398;28;20060;-62
2023/01/10 12:51:53;;;;;;;26.48;6.18;;;6.80;99.90;;;;;;5021945;28;20139;-61
2023/01/10 12:54:22;;;;;;;25.48;5.32;;;6.80;99.90;;;;;;5023276;28;20044;-62
2023/01/10 12:56:49;;;;;;;29.27;5.57;;;6.80;99.90;;;;;;5025614;28;20033;-63
2023/01/10 12:59:24;;;;;;;22.30;5.32;;;6.70;99.90;;;;;;5022190;28;20488;-62
2023/01/10 13:02:00;;;;;;;25.35;5.85;;;6.70;99.90;;;;;;5045491;28;20376;-65
2023/01/10 13:04:27;;;;;;;20.55;5.03;;;6.70;99.90;;;;;;5042260;28;20403;-63
2023/01/10 13:06:54;;;;;;;28.45;5.30;;;6.80;99.90;;;;;;5044701;28;20037;-63
2023/01/10 13:09:23;;;;;;;30.23;5.45;;;6.70;99.90;;;;;;5026606;28;20061;-62
2023/01/10 13:12:01;;;;;;;29.60;5.35;;;6.70;99.90;;;;;;5028116;28;20048;-63
2023/01/10 13:14:50;;;;;;;26.45;6.10;;;6.70;99.90;;;;;;5048466;28;20032;-64
2023/01/10 13:17:31;;;;;;;26.77;5.07;;;6.70;99.90;;;;;;5046691;28;20028;-62